createdAt,value
2018-02-24T00:01:28.634Z,48.60
2018-02-24T00:03:57.634Z,38.20
2018-02-24T00:06:25.659Z,48.17
2018-02-24T00:08:54.658Z,42.33
2018-02-24T00:11:22.698Z,44.22
2018-02-24T00:13:50.842Z,42.25
2018-02-24T00:16:18.862Z,46.08
2018-02-24T00:18:46.890Z,29.95
2018-02-24T00:21:16.833Z,47.72
2018-02-24T00:23:44.889Z,51.20
2018-02-24T00:26:14.802Z,50.25
2018-02-24T00:28:42.823Z,45.47
2018-02-24T00:31:21.374Z,45.75
2018-02-24T00:33:50.386Z,46.28
2018-02-24T00:36:18.439Z,49.83
2018-02-24T00:38:48.351Z,39.55
2018-02-24T00:41:16.437Z,42.28
2018-02-24T00:43:44.482Z,44.00
2018-02-24T00:46:17.110Z,53.45
2018-02-24T00:48:45.146Z,51.05
2018-02-24T00:51:14.186Z,40.78
2018-02-24T00:53:45.122Z,52.97
2018-02-24T00:56:31.349Z,48.75
2018-02-24T00:59:04.809Z,41.45
2018-02-24T01:01:39.305Z,32.25
2018-02-24T01:04:08.230Z,38.47
2018-02-24T01:06:53.066Z,41.35
2018-02-24T01:09:21.090Z,51.55
2018-02-24T01:11:49.122Z,29.42
2018-02-24T01:14:18.058Z,51.65
2018-02-24T01:16:51.564Z,36.08
2018-02-24T01:19:29.474Z,41.80
2018-02-24T01:21:57.525Z,45.15
2018-02-24T01:24:27.297Z,48.42
2018-02-24T01:26:59.073Z,29.25
2018-02-24T01:29:27.869Z,36.33
2018-02-24T01:31:56.662Z,48.10
2018-02-24T01:34:26.226Z,57.65
2018-02-24T01:37:06.485Z,42.25
2018-02-24T01:39:35.401Z,44.67
2018-02-24T01:42:05.173Z,50.83
2018-02-24T01:44:37.262Z,28.38
2018-02-24T01:47:07.178Z,41.97
2018-02-24T01:49:38.202Z,37.63
2018-02-24T01:52:07.346Z,55.15
2018-02-24T01:54:35.366Z,43.28
2018-02-24T01:57:07.542Z,56.00
2018-02-24T01:59:35.557Z,48.83
2018-02-24T02:02:07.066Z,45.45
2018-02-24T02:04:36.970Z,44.70
2018-02-24T02:07:05.877Z,45.38
2018-02-24T02:09:46.294Z,44.88
2018-02-24T02:12:22.166Z,46.95
2018-02-24T02:14:50.194Z,50.40
2018-02-24T02:17:22.737Z,18.60
2018-02-24T02:19:52.734Z,28.27
2018-02-24T02:22:24.610Z,38.67
2018-02-24T02:25:05.038Z,48.28
2018-02-24T02:27:41.909Z,35.95
2018-02-24T02:30:09.946Z,44.70
2018-02-24T02:32:43.667Z,45.42
2018-02-24T02:35:22.514Z,37.45
2018-02-24T02:37:52.550Z,48.08
2018-02-24T02:43:21.077Z,41.42
2018-02-24T02:45:59.535Z,31.17
2018-02-24T02:48:27.570Z,32.45
2018-02-24T02:50:56.566Z,43.05
2018-02-24T02:53:28.269Z,32.38
2018-02-24T02:56:07.694Z,28.62
2018-02-24T02:58:35.738Z,17.30
2018-02-24T03:01:03.754Z,30.23
2018-02-24T03:03:31.774Z,24.73
2018-02-24T03:06:01.729Z,32.25
2018-02-24T03:08:42.356Z,18.02
2018-02-24T03:11:11.313Z,29.20
2018-02-24T03:13:42.437Z,28.87
2018-02-24T03:16:13.885Z,33.28
2018-02-24T03:18:43.897Z,31.77
2018-02-24T03:21:12.909Z,26.17
2018-02-24T03:23:51.733Z,27.35
2018-02-24T03:26:21.738Z,41.83
2018-02-24T03:28:50.721Z,31.55
2018-02-24T03:31:20.737Z,22.10
2018-02-24T03:33:48.765Z,34.72
2018-02-24T03:36:18.725Z,21.85
2018-02-24T03:38:48.644Z,27.05
2018-02-24T03:41:17.649Z,20.95
2018-02-24T03:43:45.677Z,18.48
2018-02-24T03:46:16.641Z,27.33
2018-02-24T03:48:58.785Z,27.27
2018-02-24T03:51:26.893Z,24.27
2018-02-24T03:53:55.961Z,22.13
2018-02-24T03:56:25.977Z,25.42
2018-02-24T03:58:59.133Z,24.23
2018-02-24T04:01:33.637Z,23.30
2018-02-24T04:04:01.677Z,21.30
2018-02-24T04:06:31.441Z,30.35
2018-02-24T04:09:01.253Z,22.52
2018-02-24T04:11:34.641Z,17.40
2018-02-24T04:14:06.480Z,23.20
2018-02-24T04:16:38.276Z,20.60
2018-02-24T04:19:07.069Z,22.60
2018-02-24T04:21:59.724Z,27.42
2018-02-24T04:24:27.749Z,23.15
2018-02-24T04:26:56.717Z,18.02
2018-02-24T04:29:24.732Z,26.25
2018-02-24T04:31:55.441Z,31.60
2018-02-24T04:34:24.440Z,19.33
2018-02-24T04:36:52.469Z,28.80
2018-02-24T04:39:24.759Z,16.05
2018-02-24T04:42:07.021Z,16.98
2018-02-24T04:44:35.054Z,23.50
2018-02-24T04:47:09.177Z,36.33
2018-02-24T04:49:38.945Z,20.48
2018-02-24T04:52:10.397Z,28.30
2018-02-24T04:54:38.413Z,33.22
2018-02-24T04:57:08.128Z,42.92
2018-02-24T04:59:36.149Z,19.60
2018-02-24T05:02:05.159Z,23.35
2018-02-24T05:04:48.333Z,27.75
2018-02-24T05:07:16.361Z,21.17
2018-02-24T05:09:44.384Z,21.40
2018-02-24T05:12:19.825Z,22.90
2018-02-24T05:14:51.220Z,37.03
2018-02-24T05:17:47.813Z,40.15
2018-02-24T05:20:25.349Z,28.20
2018-02-24T05:23:05.861Z,36.75
2018-02-24T05:28:28.864Z,23.08
2018-02-24T05:31:02.673Z,25.00
2018-02-24T05:33:32.673Z,20.75
2018-02-24T05:36:00.709Z,26.37
2018-02-24T05:38:30.668Z,24.90
2018-02-24T05:41:00.676Z,19.83
2018-02-24T05:43:29.677Z,27.67
2018-02-24T05:46:06.008Z,26.73
2018-02-24T05:48:37.088Z,19.30
2018-02-24T05:51:06.064Z,27.58
2018-02-24T05:53:34.088Z,22.25
2018-02-24T05:56:06.528Z,22.42
2018-02-24T05:58:41.948Z,27.20
2018-02-24T06:01:09.963Z,43.20
2018-02-24T06:03:39.637Z,12.63
2018-02-24T06:06:11.501Z,22.50
2018-02-24T06:08:48.041Z,20.98
2018-02-24T06:11:19.212Z,28.00
2018-02-24T06:13:53.840Z,23.60
2018-02-24T06:16:24.864Z,22.65
2018-02-24T06:18:59.204Z,18.62
2018-02-24T06:21:36.857Z,36.75
2018-02-24T06:24:05.868Z,36.88
2018-02-24T06:26:36.915Z,27.62
2018-02-24T06:29:08.672Z,19.73
2018-02-24T06:31:46.444Z,20.40
2018-02-24T06:34:38.673Z,34.00
2018-02-24T06:37:32.428Z,19.92
2018-02-24T06:40:05.988Z,22.33
2018-02-24T06:42:34.000Z,33.10
2018-02-24T06:45:05.816Z,23.85
2018-02-24T06:47:33.836Z,19.27
2018-02-24T06:50:03.800Z,25.83
2018-02-24T06:52:38.496Z,38.45
2018-02-24T06:55:14.456Z,24.20
2018-02-24T06:57:43.255Z,31.62
2018-02-24T07:00:18.280Z,22.33
2018-02-24T07:02:48.228Z,42.28
2018-02-24T07:05:31.384Z,45.72
2018-02-24T07:08:03.104Z,51.72
2018-02-24T07:10:31.136Z,36.85
2018-02-24T07:13:07.096Z,29.80
2018-02-24T07:15:40.892Z,38.00
2018-02-24T07:18:08.928Z,36.20
2018-02-24T07:20:55.328Z,32.97
2018-02-24T07:23:38.148Z,28.35
2018-02-24T07:26:11.828Z,46.05
2018-02-24T07:28:43.567Z,33.00
2018-02-24T07:31:11.596Z,28.70
2018-02-24T07:33:51.272Z,29.12
2018-02-24T07:36:31.792Z,24.33
2018-02-24T07:39:05.988Z,31.87
2018-02-24T07:41:34.780Z,25.55
2018-02-24T07:44:06.924Z,25.73
2018-02-24T07:46:44.260Z,19.20
2018-02-24T07:49:15.643Z,44.33
2018-02-24T07:51:49.240Z,40.05
2018-02-24T07:54:23.056Z,35.63
2018-02-24T07:59:56.035Z,22.77
2018-02-24T08:02:24.050Z,34.42
2018-02-24T08:04:52.060Z,28.98
2018-02-24T08:07:23.436Z,38.03
2018-02-24T08:10:05.479Z,38.97
2018-02-24T08:12:33.499Z,34.78
2018-02-24T08:15:02.399Z,39.08
2018-02-24T08:17:35.535Z,44.20
2018-02-24T08:20:09.077Z,36.97
2018-02-24T08:22:44.592Z,27.30
2018-02-24T08:25:12.623Z,33.72
2018-02-24T08:27:42.623Z,37.38
2018-02-24T08:30:35.844Z,32.67
2018-02-24T08:33:05.780Z,34.30
2018-02-24T08:35:37.539Z,25.02
2018-02-24T08:38:05.568Z,33.50
2018-02-24T08:40:34.495Z,23.75
2018-02-24T08:43:06.969Z,27.85
2018-02-24T08:45:36.938Z,22.92
2018-02-24T08:48:05.703Z,32.17
2018-02-24T08:50:34.548Z,28.73
2018-02-24T08:53:04.491Z,30.80
2018-02-24T08:55:37.511Z,33.13
2018-02-24T08:58:06.292Z,34.55
2018-02-24T09:00:36.098Z,25.90
2018-02-24T09:03:05.999Z,16.37
2018-02-24T09:05:46.439Z,23.70
2018-02-24T09:08:16.455Z,23.55
2018-02-24T09:10:44.455Z,20.95
2018-02-24T09:13:12.459Z,18.25
2018-02-24T09:15:40.471Z,19.67
2018-02-24T09:18:08.475Z,21.60
2018-02-24T09:20:39.147Z,30.27
2018-02-24T09:23:07.155Z,19.90
2018-02-24T09:25:36.059Z,23.45
2018-02-24T09:28:04.071Z,27.92
2018-02-24T09:30:33.979Z,24.42
2018-02-24T09:33:05.571Z,30.25
2018-02-24T09:35:33.635Z,20.70
2018-02-24T09:38:02.623Z,21.73
2018-02-24T09:40:30.631Z,24.25
2018-02-24T09:43:05.640Z,27.55
2018-02-24T09:45:35.675Z,24.42
2018-02-24T09:48:05.435Z,23.62
2018-02-24T09:50:34.211Z,19.52
2018-02-24T09:53:02.228Z,21.58
2018-02-24T09:55:33.979Z,19.87
2018-02-24T09:58:05.731Z,16.77
2018-02-24T10:00:37.339Z,15.77
2018-02-24T10:03:05.351Z,23.87
2018-02-24T10:05:34.039Z,22.70
2018-02-24T10:08:02.935Z,19.42
2018-02-24T10:10:32.947Z,15.27
2018-02-24T10:13:05.451Z,20.33
2018-02-24T10:15:33.469Z,17.30
2018-02-24T10:18:08.199Z,25.30
2018-02-24T10:20:36.755Z,23.77
2018-02-24T10:23:05.716Z,22.50
2018-02-24T10:25:33.791Z,20.17
2018-02-24T10:28:02.747Z,23.12
2018-02-24T10:30:31.734Z,23.15
2018-02-24T10:32:59.782Z,20.52
2018-02-24T10:35:34.270Z,18.52
2018-02-24T10:38:04.943Z,18.30
2018-02-24T10:40:34.875Z,26.48
2018-02-24T10:43:04.792Z,19.35
2018-02-24T10:45:37.191Z,14.75
2018-02-24T10:48:06.214Z,12.37
2018-02-24T10:50:34.243Z,10.60
2018-02-24T10:53:03.215Z,20.02
2018-02-24T10:55:32.123Z,14.98
2018-02-24T10:58:01.807Z,14.68
2018-02-24T11:00:29.811Z,11.80
2018-02-24T11:02:57.819Z,16.45
2018-02-24T11:05:25.838Z,14.30
2018-02-24T11:07:53.855Z,12.45
2018-02-24T11:10:21.879Z,17.37
2018-02-24T11:12:50.763Z,13.60
2018-02-24T11:15:22.499Z,10.43
2018-02-24T11:17:51.494Z,16.85
2018-02-24T11:20:23.251Z,11.12
2018-02-24T11:22:58.908Z,16.95
2018-02-24T11:25:27.795Z,11.38
2018-02-24T11:27:56.778Z,18.70
2018-02-24T11:30:26.702Z,18.08
2018-02-24T11:32:54.723Z,14.60
2018-02-24T11:35:22.722Z,15.48
2018-02-24T11:37:51.651Z,13.05
2018-02-24T11:40:24.571Z,15.35
2018-02-24T11:42:52.591Z,12.63
2018-02-24T11:45:26.338Z,14.73
2018-02-24T11:47:54.350Z,18.08
2018-02-24T11:50:22.370Z,14.70
2018-02-24T11:52:54.642Z,12.77
2018-02-24T11:55:26.267Z,8.50
2018-02-24T11:57:55.206Z,17.25
2018-02-24T12:00:25.159Z,16.80
2018-02-24T12:02:56.426Z,15.15
2018-02-24T12:05:26.318Z,15.52
2018-02-24T12:08:05.527Z,16.77
2018-02-24T12:10:37.586Z,14.50
2018-02-24T12:13:06.389Z,12.43
2018-02-24T12:15:41.978Z,13.95
2018-02-24T12:18:14.839Z,15.40
2018-02-24T12:20:42.854Z,10.07
2018-02-24T12:23:14.450Z,10.00
2018-02-24T12:25:46.046Z,10.98
2018-02-24T12:28:16.726Z,10.60
2018-02-24T12:30:48.791Z,12.70
2018-02-24T12:33:17.682Z,10.90
2018-02-24T12:35:49.350Z,15.43
2018-02-24T12:38:18.256Z,11.18
2018-02-24T12:40:49.294Z,13.00
2018-02-24T12:43:28.698Z,12.57
2018-02-24T12:45:56.722Z,12.65
2018-02-24T12:48:26.393Z,13.18
2018-02-24T12:50:59.316Z,9.20
2018-02-24T12:53:28.202Z,13.15
2018-02-24T12:55:58.919Z,14.60
2018-02-24T12:58:35.546Z,13.18
2018-02-24T13:01:03.554Z,11.55
2018-02-24T13:03:32.470Z,13.13
2018-02-24T13:06:02.226Z,8.52
2018-02-24T13:08:47.380Z,8.77
2018-02-24T13:11:19.523Z,7.03
2018-02-24T13:13:55.920Z,8.07
2018-02-24T13:16:26.783Z,10.18
2018-02-24T13:19:00.463Z,9.55
2018-02-24T13:21:31.510Z,8.32
2018-02-24T13:23:59.526Z,8.27
2018-02-24T13:26:32.990Z,9.57
2018-02-24T13:29:04.247Z,11.85
2018-02-24T13:31:32.262Z,6.37
2018-02-24T13:34:03.858Z,7.40
2018-02-24T13:36:31.875Z,6.28
2018-02-24T13:39:00.647Z,9.15
2018-02-24T13:41:29.414Z,7.82
2018-02-24T13:43:59.422Z,8.98
2018-02-24T13:46:33.698Z,6.62
2018-02-24T13:49:06.626Z,7.28
2018-02-24T13:51:36.634Z,7.37
2018-02-24T13:54:04.646Z,8.82
2018-02-24T13:56:34.306Z,10.90
2018-02-24T13:59:06.693Z,10.30
2018-02-24T14:01:36.715Z,8.93
2018-02-24T14:04:04.715Z,8.68
2018-02-24T14:06:37.929Z,10.70
2018-02-24T14:09:07.814Z,9.45
2018-02-24T14:11:36.586Z,11.45
2018-02-24T14:14:05.489Z,9.07
2018-02-24T14:16:36.190Z,11.27
2018-02-24T14:19:04.198Z,11.50
2018-02-24T14:21:44.293Z,9.57
2018-02-24T14:24:19.206Z,12.05
2018-02-24T14:26:48.142Z,11.20
2018-02-24T14:29:21.384Z,12.85
2018-02-24T14:32:04.186Z,8.63
2018-02-24T14:34:37.462Z,12.18
2018-02-24T14:37:05.473Z,12.52
2018-02-24T14:39:38.078Z,11.38
2018-02-24T14:42:06.998Z,10.95
2018-02-24T14:44:35.766Z,17.27
2018-02-24T14:47:03.786Z,12.88
2018-02-24T14:49:33.738Z,19.27
2018-02-24T14:52:01.754Z,20.23
2018-02-24T14:54:29.766Z,20.37
2018-02-24T14:57:03.646Z,14.80
2018-02-24T14:59:32.559Z,41.78
2018-02-24T15:02:04.574Z,23.12
2018-02-24T15:04:33.358Z,15.68
2018-02-24T15:07:02.134Z,14.65
2018-02-24T15:09:35.726Z,15.85
2018-02-24T15:12:04.634Z,17.42
2018-02-24T15:14:37.079Z,17.77
2018-02-24T15:17:05.091Z,13.90
2018-02-24T15:19:33.850Z,12.40
2018-02-24T15:22:03.750Z,17.58
2018-02-24T15:27:26.726Z,18.73
2018-02-24T15:30:03.216Z,11.93
2018-02-24T15:32:35.350Z,11.98
2018-02-24T15:35:07.118Z,9.52
2018-02-24T15:37:45.594Z,15.45
2018-02-24T15:40:17.823Z,13.48
2018-02-24T15:42:50.483Z,15.23
2018-02-24T15:45:18.489Z,14.77
2018-02-24T15:47:57.774Z,14.43
2018-02-24T15:50:43.186Z,17.12
2018-02-24T15:53:20.310Z,13.23
2018-02-24T15:56:02.937Z,17.73
2018-02-24T15:58:30.935Z,12.32
2018-02-24T16:01:03.980Z,8.88
2018-02-24T16:03:36.738Z,11.88
2018-02-24T16:06:08.346Z,13.88
2018-02-24T16:08:43.941Z,15.30
2018-02-24T16:11:12.022Z,13.25
2018-02-24T16:13:47.349Z,12.85
2018-02-24T16:16:27.873Z,7.57
2018-02-24T16:18:59.098Z,11.05
2018-02-24T16:21:27.118Z,11.88
2018-02-24T16:23:57.014Z,10.63
2018-02-24T16:26:35.561Z,11.95
2018-02-24T16:29:03.582Z,8.05
2018-02-24T16:31:48.581Z,4.03
2018-02-24T16:34:42.814Z,8.75
2018-02-24T16:37:27.742Z,10.27
2018-02-24T16:39:59.006Z,8.30
2018-02-24T16:45:28.078Z,17.70
2018-02-24T16:48:02.753Z,11.88
2018-02-24T16:50:49.548Z,12.57
2018-02-24T16:53:17.565Z,11.85
2018-02-24T16:55:51.534Z,10.85
2018-02-24T16:58:28.085Z,9.10
2018-02-24T17:01:03.809Z,8.32
2018-02-24T17:03:53.826Z,11.40
2018-02-24T17:06:36.927Z,12.98
2018-02-24T17:12:04.583Z,10.75
2018-02-24T17:14:44.565Z,15.38
2018-02-24T17:20:22.497Z,11.70
2018-02-24T17:23:03.220Z,11.52
2018-02-24T17:28:29.882Z,11.27
2018-02-24T17:31:02.705Z,10.82
2018-02-24T17:33:31.645Z,12.70
2018-02-24T17:35:59.637Z,6.32
2018-02-24T17:38:34.617Z,8.50
2018-02-24T17:41:21.469Z,10.10
2018-02-24T17:44:02.617Z,14.60
2018-02-24T17:52:31.342Z,7.07
2018-02-24T17:55:22.621Z,6.03
2018-02-24T17:58:02.961Z,11.15
2018-02-24T18:00:31.767Z,11.25
2018-02-24T18:03:03.786Z,9.68
2018-02-24T18:05:32.733Z,11.05
2018-02-24T18:08:04.313Z,8.73
2018-02-24T18:10:41.625Z,10.15
2018-02-24T18:13:28.833Z,11.80
2018-02-24T18:16:03.321Z,7.18
2018-02-24T18:18:31.329Z,25.62
2018-02-24T18:21:02.905Z,7.55
2018-02-24T18:23:35.549Z,6.40
2018-02-24T18:26:17.680Z,8.85
2018-02-24T18:31:44.636Z,8.98
2018-02-24T18:37:13.269Z,11.32
2018-02-24T18:39:41.213Z,12.43
2018-02-24T18:42:10.017Z,7.85
2018-02-24T18:44:42.905Z,9.48
2018-02-24T18:47:21.249Z,6.95
2018-02-24T18:50:02.553Z,9.32
2018-02-24T18:55:37.798Z,7.03
2018-02-24T19:01:03.434Z,7.75
2018-02-24T19:09:41.421Z,7.30
2018-02-24T19:15:03.144Z,7.65
2018-02-24T19:17:47.050Z,6.85
2018-02-24T19:20:20.841Z,9.90
2018-02-24T19:22:50.749Z,8.95
2018-02-24T19:25:20.705Z,16.77
2018-02-24T19:28:02.553Z,10.02
2018-02-24T19:36:24.821Z,4.05
2018-02-24T19:39:03.641Z,13.55
2018-02-24T19:41:46.913Z,6.78
2018-02-24T19:44:15.817Z,5.90
2018-02-24T19:46:50.341Z,6.43
2018-02-24T19:49:35.473Z,8.68
2018-02-24T19:52:05.421Z,6.78
2018-02-24T19:54:34.312Z,5.50
2018-02-24T19:57:03.220Z,11.98
2018-02-24T19:59:32.025Z,5.90
2018-02-24T20:02:01.689Z,13.18
2018-02-24T20:04:30.674Z,4.47
2018-02-24T20:07:06.593Z,7.65
2018-02-24T20:09:35.521Z,5.10
2018-02-24T20:12:03.526Z,6.15
2018-02-24T20:14:34.221Z,13.15
2018-02-24T20:17:04.125Z,2.37
2018-02-24T20:19:39.641Z,8.30
2018-02-24T20:22:12.677Z,8.23
2018-02-24T20:25:00.784Z,20.88
2018-02-24T20:27:30.720Z,4.75
2018-02-24T20:30:02.981Z,18.33
2018-02-24T20:32:33.048Z,6.55
2018-02-24T20:35:21.317Z,8.48
2018-02-24T20:37:54.972Z,4.60
2018-02-24T20:40:23.925Z,9.27
2018-02-24T20:42:55.509Z,12.73
2018-02-24T20:45:23.537Z,12.55
2018-02-24T20:47:55.040Z,8.68
2018-02-24T20:50:31.584Z,10.45
2018-02-24T20:53:02.833Z,17.17
2018-02-24T20:55:38.180Z,9.65
2018-02-24T20:58:10.277Z,10.63
2018-02-24T21:00:39.084Z,17.20
2018-02-24T21:03:08.029Z,6.07
2018-02-24T21:05:37.944Z,7.22
2018-02-24T21:08:09.092Z,4.05
2018-02-24T21:10:39.173Z,16.60
2018-02-24T21:13:22.164Z,7.90
2018-02-24T21:15:51.848Z,8.07
2018-02-24T21:18:30.820Z,3.92
2018-02-24T21:21:02.921Z,3.47
2018-02-24T21:23:30.941Z,3.42
2018-02-24T21:26:03.409Z,6.03
2018-02-24T21:28:56.024Z,7.45
2018-02-24T21:31:25.009Z,7.12
2018-02-24T21:33:56.557Z,5.40
2018-02-24T21:36:29.289Z,3.72
2018-02-24T21:38:59.228Z,7.20
2018-02-24T21:41:30.818Z,9.40
2018-02-24T21:44:00.765Z,6.60
2018-02-24T21:46:29.705Z,21.25
2018-02-24T21:49:02.453Z,8.13
2018-02-24T21:51:31.484Z,10.10
2018-02-24T21:54:01.401Z,11.15
2018-02-24T21:56:32.848Z,9.23
2018-02-24T21:59:05.418Z,11.82
2018-02-24T22:01:38.108Z,3.37
2018-02-24T22:04:09.741Z,4.05
2018-02-24T22:06:50.246Z,7.00
2018-02-24T22:09:24.336Z,12.93
2018-02-24T22:11:53.313Z,13.43
2018-02-24T22:14:23.232Z,5.15
2018-02-24T22:16:51.248Z,7.57
2018-02-24T22:19:38.196Z,8.38
2018-02-24T22:22:09.886Z,7.95
2018-02-24T22:24:37.896Z,9.23
2018-02-24T22:27:07.844Z,9.38
2018-02-24T22:29:41.308Z,6.07
2018-02-24T22:32:27.392Z,7.80
2018-02-24T22:34:55.460Z,12.45
2018-02-24T22:37:27.480Z,10.43
2018-02-24T22:40:01.756Z,7.53
2018-02-24T22:42:48.162Z,12.88
2018-02-24T22:45:19.428Z,8.05
2018-02-24T22:48:05.576Z,6.43
2018-02-24T22:50:35.336Z,8.10
2018-02-24T22:53:03.380Z,11.75
2018-02-24T22:55:40.348Z,12.40
2018-02-24T22:58:09.468Z,6.25
2018-02-24T23:00:38.396Z,12.50
2018-02-24T23:03:12.008Z,8.40
2018-02-24T23:05:47.600Z,12.70
2018-02-24T23:08:21.436Z,16.00
2018-02-24T23:10:50.492Z,8.52
2018-02-24T23:16:22.501Z,11.48
2018-02-24T23:18:52.524Z,7.45
2018-02-24T23:21:31.236Z,9.13
2018-02-24T23:23:59.280Z,10.45
2018-02-24T23:26:31.267Z,17.77
2018-02-24T23:28:59.296Z,4.07
2018-02-24T23:31:27.344Z,10.55
2018-02-24T23:33:56.303Z,14.10
2018-02-24T23:36:25.243Z,11.40
2018-02-24T23:38:58.303Z,6.72
2018-02-24T23:41:28.324Z,10.02
2018-02-24T23:44:01.962Z,8.13
2018-02-24T23:46:38.645Z,11.38
2018-02-24T23:49:08.580Z,9.43
2018-02-24T23:51:45.020Z,9.82
2018-02-24T23:54:19.840Z,8.63
2018-02-24T23:56:48.783Z,10.45
2018-02-24T23:59:20.783Z,10.32
